Time;durP1;ratioP1;P1;durP2;ratioP2;P2;SDS_P1;SDS_P2;PMS_P1;PMS_P2;Temp;Humidity;BMP_temperature;BMP_pressure;BME280_temperature;BME280_humidity;BME280_pressure;Samples;Min_cycle;Max_cycle;Signal;HPM_P1;HPM_P2
2023/12/24 00:00:32;;;;;;;;;;;8.20;99.90;;;;;;5073148;28;19936;-80
2023/12/24 00:03:00;;;;;;;;;;;8.20;99.90;;;;;;5079476;28;20417;-79
2023/12/24 00:05:27;;;;;;;;;;;8.20;99.90;;;;;;5077808;28;19940;-79
2023/12/24 00:07:53;;;;;;;;;;;8.20;99.90;;;;;;5074027;28;19928;-80
2023/12/24 00:10:20;;;;;;;;;;;8.20;99.90;;;;;;5076645;28;19936;-78
2023/12/24 00:12:46;;;;;;;;;;;8.20;99.90;;;;;;5073168;28;19928;-78
2023/12/24 00:15:13;;;;;;;;;;;8.20;99.90;;;;;;5072451;28;19935;-80
2023/12/24 00:17:39;;;;;;;;;;;8.20;99.90;;;;;;5080192;28;19932;-79
2023/12/24 00:20:08;;;;;;;;;;;8.30;99.90;;;;;;5075672;28;19936;-79
2023/12/24 00:22:35;;;;;;;;;;;8.20;99.90;;;;;;5073443;28;19928;-79
2023/12/24 00:25:02;;;;;;;;;;;8.30;99.90;;;;;;5075125;28;20330;-80
2023/12/24 00:27:28;;;;;;;;;;;8.30;99.90;;;;;;5076889;28;20002;-80
2023/12/24 00:29:55;;;;;;;;;;;8.20;99.90;;;;;;5078452;28;19936;-80
2023/12/24 00:32:22;;;;;;;;;;;8.30;99.90;;;;;;5069630;28;20309;-80
2023/12/24 00:34:48;;;;;;;;;;;8.20;99.90;;;;;;5070881;28;19933;-79
2023/12/24 00:37:16;;;;;;;;;;;8.30;99.90;;;;;;5078536;28;20394;-81
2023/12/24 00:39:42;;;;;;;;;;;8.20;99.90;;;;;;5072153;28;20151;-80
2023/12/24 00:42:09;;;;;;;;;;;8.10;99.90;;;;;;5072013;28;19928;-79
2023/12/24 00:44:37;;;;;;;;;;;8.20;99.90;;;;;;5070939;28;19932;-80
2023/12/24 00:47:04;;;;;;;;;;;8.20;99.90;;;;;;5073191;28;19924;-81
2023/12/24 00:49:31;;;;;;;;;;;8.30;99.90;;;;;;5072156;28;20018;-79
2023/12/24 00:51:57;;;;;;;;;;;8.30;99.90;;;;;;5072849;28;19928;-79
2023/12/24 00:54:25;;;;;;;;;;;8.20;99.90;;;;;;5073463;28;19989;-78
2023/12/24 00:56:52;;;;;;;;;;;8.20;99.90;;;;;;5071764;28;20341;-79
2023/12/24 00:59:18;;;;;;;;;;;8.30;99.90;;;;;;5074300;28;20069;-82
2023/12/24 01:01:45;;;;;;;;;;;8.30;99.90;;;;;;5069645;28;19951;-80
2023/12/24 01:04:11;;;;;;;;;;;8.30;99.90;;;;;;5071411;28;19947;-77
2023/12/24 01:06:38;;;;;;;;;;;8.30;99.90;;;;;;5071557;28;19952;-79
2023/12/24 01:09:05;;;;;;;;;;;8.30;99.90;;;;;;5073611;28;19928;-79
2023/12/24 01:11:33;;;;;;;;;;;8.20;99.90;;;;;;5073139;28;19928;-80
2023/12/24 01:13:59;;;;;;;;;;;8.30;99.90;;;;;;5071571;28;20429;-81
2023/12/24 01:16:26;;;;;;;;;;;8.20;99.90;;;;;;5075038;28;20425;-80
2023/12/24 01:18:52;;;;;;;;;;;8.30;99.90;;;;;;5074650;28;20627;-81
2023/12/24 01:21:19;;;;;;;;;;;8.20;99.90;;;;;;5072481;28;19932;-80
2023/12/24 01:23:46;;;;;;;;;;;8.20;99.90;;;;;;5075735;28;20679;-79
2023/12/24 01:26:12;;;;;;;;;;;8.30;99.90;;;;;;5077381;28;20433;-80
2023/12/24 01:28:41;;;;;;;;;;;8.30;99.90;;;;;;5075418;28;19928;-81
2023/12/24 01:31:07;;;;;;;;;;;8.30;99.90;;;;;;5067720;28;19935;-79
2023/12/24 01:33:34;;;;;;;;;;;8.30;99.90;;;;;;5071406;28;19925;-79
2023/12/24 01:36:00;;;;;;;;;;;8.30;99.90;;;;;;5074169;28;19939;-79
2023/12/24 01:38:27;;;;;;;;;;;8.30;99.90;;;;;;5075713;28;19939;-80
2023/12/24 01:40:53;;;;;;;;;;;8.30;99.90;;;;;;5070375;28;19928;-79
2023/12/24 01:43:20;;;;;;;;;;;8.20;99.90;;;;;;5075836;28;19936;-78
2023/12/24 01:45:48;;;;;;;;;;;8.30;99.90;;;;;;5071199;28;19929;-79
2023/12/24 01:48:15;;;;;;;;;;;8.30;99.90;;;;;;5072999;28;19928;-78
2023/12/24 01:50:43;;;;;;;;;;;8.30;99.90;;;;;;5072750;28;19974;-81
2023/12/24 01:53:09;;;;;;;;;;;8.30;99.90;;;;;;5073168;28;19940;-80
2023/12/24 01:55:36;;;;;;;;;;;8.30;99.90;;;;;;5074297;28;19928;-81
2023/12/24 01:58:03;;;;;;;;;;;8.30;99.90;;;;;;5069452;28;19933;-79
2023/12/24 02:00:30;;;;;;;;;;;8.30;99.90;;;;;;5070569;28;19928;-79
2023/12/24 02:02:59;;;;;;;;;;;8.30;99.90;;;;;;5072865;28;20567;-78
2023/12/24 02:05:26;;;;;;;;;;;8.30;99.90;;;;;;5074017;28;20010;-80
2023/12/24 02:07:52;;;;;;;;;;;8.30;99.90;;;;;;5073801;28;20449;-80
2023/12/24 02:10:19;;;;;;;;;;;8.30;99.90;;;;;;5074860;28;19929;-79
2023/12/24 02:12:46;;;;;;;;;;;8.30;99.90;;;;;;5072664;28;19933;-78
2023/12/24 02:15:12;;;;;;;;;;;8.30;99.90;;;;;;5069083;28;19963;-80
2023/12/24 02:17:39;;;;;;;;;;;8.30;99.90;;;;;;5069382;28;19963;-79
2023/12/24 02:20:08;;;;;;;;;;;8.30;99.90;;;;;;5072314;28;19940;-79
2023/12/24 02:22:36;;;;;;;;;;;8.30;99.90;;;;;;5073825;28;20440;-79
2023/12/24 02:25:02;;;;;;;;;;;8.30;99.90;;;;;;5074586;28;19929;-79
2023/12/24 02:27:31;;;;;;;;;;;8.30;99.90;;;;;;5068867;28;19936;-80
2023/12/24 02:30:02;;;;;;;;;;;8.30;99.90;;;;;;5074978;28;19935;-79
2023/12/24 02:32:30;;;;;;;;;;;8.40;99.90;;;;;;5073086;28;19928;-79
2023/12/24 02:34:56;;;;;;;;;;;8.40;99.90;;;;;;5064348;28;20401;-79
2023/12/24 02:37:22;;;;;;;;;;;8.30;99.90;;;;;;5073567;28;20321;-79
2023/12/24 02:39:51;;;;;;;;;;;8.40;99.90;;;;;;5072753;28;19950;-79
2023/12/24 02:42:17;;;;;;;;;;;8.40;99.90;;;;;;5073198;28;19928;-79
2023/12/24 02:44:44;;;;;;;;;;;8.40;99.90;;;;;;5077921;28;19928;-79
2023/12/24 02:47:10;;;;;;;;;;;8.40;99.90;;;;;;5076338;28;20428;-80
2023/12/24 02:49:37;;;;;;;;;;;8.40;99.90;;;;;;5072893;28;19928;-80
2023/12/24 02:52:04;;;;;;;;;;;8.40;99.90;;;;;;5069896;28;19940;-80
2023/12/24 02:54:30;;;;;;;;;;;8.40;99.90;;;;;;5070760;28;19932;-79
2023/12/24 02:56:58;;;;;;;;;;;8.40;99.90;;;;;;5070527;28;19928;-78
2023/12/24 02:59:26;;;;;;;;;;;8.40;99.90;;;;;;5073511;28;19935;-80
2023/12/24 03:01:52;;;;;;;;;;;8.40;99.90;;;;;;5072765;28;19940;-79
2023/12/24 03:04:19;;;;;;;;;;;8.40;99.90;;;;;;5075084;28;20395;-80
2023/12/24 03:06:45;;;;;;;;;;;8.40;99.90;;;;;;5074127;28;19928;-77
2023/12/24 03:09:12;;;;;;;;;;;8.40;99.90;;;;;;5072965;28;19935;-80
2023/12/24 03:11:38;;;;;;;;;;;8.40;99.90;;;;;;5078328;28;19928;-79
2023/12/24 03:14:06;;;;;;;;;;;8.40;99.90;;;;;;5078105;28;19933;-79
2023/12/24 03:16:33;;;;;;;;;;;8.40;99.90;;;;;;5073376;28;20360;-79
2023/12/24 03:18:59;;;;;;;;;;;8.40;99.90;;;;;;5077448;28;19958;-79
2023/12/24 03:21:26;;;;;;;;;;;8.40;99.90;;;;;;5073540;28;19940;-79
2023/12/24 03:23:53;;;;;;;;;;;8.40;99.90;;;;;;5070773;28;19932;-78
2023/12/24 03:26:20;;;;;;;;;;;8.40;99.90;;;;;;5075530;28;19932;-78
2023/12/24 03:28:47;;;;;;;;;;;8.40;99.90;;;;;;5070627;28;20294;-77
2023/12/24 03:31:15;;;;;;;;;;;8.40;99.90;;;;;;5071327;28;19928;-79
2023/12/24 03:33:41;;;;;;;;;;;8.40;99.90;;;;;;5071860;28;19925;-79
2023/12/24 03:36:09;;;;;;;;;;;8.40;99.90;;;;;;5072464;28;19928;-79
2023/12/24 03:38:35;;;;;;;;;;;8.40;99.90;;;;;;5074205;28;20390;-78
2023/12/24 03:41:02;;;;;;;;;;;8.40;99.90;;;;;;5069676;28;20588;-79
2023/12/24 03:43:29;;;;;;;;;;;8.40;99.90;;;;;;5075294;28;20389;-76
2023/12/24 03:45:55;;;;;;;;;;;8.40;99.90;;;;;;5070320;28;19935;-79
2023/12/24 03:48:23;;;;;;;;;;;8.40;99.90;;;;;;5076629;28;19929;-81
2023/12/24 03:50:50;;;;;;;;;;;8.40;99.90;;;;;;5068342;28;19929;-79
2023/12/24 03:53:16;;;;;;;;;;;8.40;99.90;;;;;;5073474;28;19947;-80
2023/12/24 03:55:43;;;;;;;;;;;8.40;99.90;;;;;;5074731;28;19934;-80
2023/12/24 03:58:09;;;;;;;;;;;8.40;99.90;;;;;;5075726;28;19935;-80
2023/12/24 04:00:36;;;;;;;;;;;8.40;99.90;;;;;;5071410;28;19932;-81
2023/12/24 04:03:02;;;;;;;;;;;8.40;99.90;;;;;;5075107;28;19935;-79
2023/12/24 04:05:30;;;;;;;;;;;8.40;99.90;;;;;;5070370;28;19955;-80
2023/12/24 04:07:57;;;;;;;;;;;8.40;99.90;;;;;;5070403;28;20418;-76
2023/12/24 04:10:23;;;;;;;;;;;8.40;99.90;;;;;;5076307;28;20729;-79
2023/12/24 04:12:50;;;;;;;;;;;8.40;99.90;;;;;;5072547;28;19982;-79
2023/12/24 04:15:16;;;;;;;;;;;8.40;99.90;;;;;;5067289;28;20480;-79
2023/12/24 04:17:43;;;;;;;;;;;8.40;99.90;;;;;;5074462;28;20286;-80
2023/12/24 04:20:10;;;;;;;;;;;8.40;99.90;;;;;;5071948;28;19932;-79
2023/12/24 04:22:38;;;;;;;;;;;8.40;99.90;;;;;;5070884;28;19928;-79
2023/12/24 04:25:05;;;;;;;;;;;8.40;99.90;;;;;;5072915;28;19936;-79
2023/12/24 04:27:31;;;;;;;;;;;8.40;99.90;;;;;;5074195;28;19928;-80
2023/12/24 04:29:58;;;;;;;;;;;8.40;99.90;;;;;;5069442;28;19940;-80
2023/12/24 04:32:24;;;;;;;;;;;8.40;99.90;;;;;;5070249;28;19928;-79
2023/12/24 04:34:51;;;;;;;;;;;8.40;99.90;;;;;;5066777;28;20336;-79
2023/12/24 04:37:18;;;;;;;;;;;8.40;99.90;;;;;;5071905;28;19960;-79
2023/12/24 04:39:46;;;;;;;;;;;8.40;99.90;;;;;;5072771;28;19932;-80
2023/12/24 04:42:13;;;;;;;;;;;8.40;99.90;;;;;;5071052;28;19935;-79
2023/12/24 04:44:39;;;;;;;;;;;8.50;99.90;;;;;;5070046;28;19933;-77
2023/12/24 04:47:07;;;;;;;;;;;8.40;99.90;;;;;;5070127;28;19932;-79
2023/12/24 04:49:33;;;;;;;;;;;8.40;99.90;;;;;;5068882;28;19932;-79
2023/12/24 04:52:00;;;;;;;;;;;8.40;99.90;;;;;;5069981;28;19935;-78
2023/12/24 04:54:26;;;;;;;;;;;8.50;99.90;;;;;;5073149;28;20522;-81
2023/12/24 04:56:54;;;;;;;;;;;8.50;99.90;;;;;;5072192;28;19932;-79
2023/12/24 04:59:21;;;;;;;;;;;8.40;99.90;;;;;;5072487;28;19932;-80
2023/12/24 05:01:49;;;;;;;;;;;8.50;99.90;;;;;;5068593;28;19936;-81
2023/12/24 05:04:15;;;;;;;;;;;8.50;99.90;;;;;;5076465;28;19929;-81
2023/12/24 05:06:42;;;;;;;;;;;8.50;99.90;;;;;;5071483;28;19932;-79
2023/12/24 05:09:08;;;;;;;;;;;8.50;99.90;;;;;;5072416;28;20337;-81
2023/12/24 05:11:35;;;;;;;;;;;8.50;99.90;;;;;;5074412;28;20637;-79
2023/12/24 05:14:03;;;;;;;;;;;8.50;99.90;;;;;;5079165;28;19940;-79
2023/12/24 05:16:29;;;;;;;;;;;8.50;99.90;;;;;;5074063;28;19935;-78
2023/12/24 05:18:56;;;;;;;;;;;8.50;99.90;;;;;;5075453;28;19928;-79
2023/12/24 05:21:22;;;;;;;;;;;8.50;99.90;;;;;;5072720;28;19935;-78
2023/12/24 05:23:49;;;;;;;;;;;8.50;99.90;;;;;;5068384;28;19928;-80
2023/12/24 05:26:15;;;;;;;;;;;8.50;99.90;;;;;;5073817;28;20007;-80
2023/12/24 05:28:42;;;;;;;;;;;8.50;99.90;;;;;;5075335;28;19924;-81
2023/12/24 05:31:10;;;;;;;;;;;8.50;99.90;;;;;;5070787;28;19928;-79
2023/12/24 05:33:36;;;;;;;;;;;8.50;99.90;;;;;;5073081;28;20516;-80
2023/12/24 05:36:03;;;;;;;;;;;8.50;99.90;;;;;;5074203;28;19924;-79
2023/12/24 05:38:30;;;;;;;;;;;8.50;99.90;;;;;;5072400;28;19932;-81
2023/12/24 05:40:57;;;;;;;;;;;8.50;99.90;;;;;;5068536;28;19928;-81
2023/12/24 05:43:23;;;;;;;;;;;8.50;99.90;;;;;;5068992;28;19970;-80
2023/12/24 05:45:50;;;;;;;;;;;8.50;99.90;;;;;;5069163;28;19936;-79
2023/12/24 05:48:18;;;;;;;;;;;8.50;99.90;;;;;;5070994;28;19999;-79
2023/12/24 05:50:44;;;;;;;;;;;8.50;99.90;;;;;;5070073;28;19929;-80
2023/12/24 05:53:11;;;;;;;;;;;8.50;99.90;;;;;;5070733;28;19935;-79
2023/12/24 05:55:37;;;;;;;;;;;8.50;99.90;;;;;;5069653;28;19928;-79
2023/12/24 05:58:04;;;;;;;;;;;8.50;99.90;;;;;;5069138;28;19933;-79
2023/12/24 06:00:30;;;;;;;;;;;8.50;99.90;;;;;;5065206;28;19954;-79
2023/12/24 06:02:57;;;;;;;;;;;8.50;99.90;;;;;;5059300;28;19948;-79
2023/12/24 06:05:24;;;;;;;;;;;8.50;99.90;;;;;;5070853;28;19928;-79
2023/12/24 06:07:50;;;;;;;;;;;8.50;99.90;;;;;;5070162;28;19942;-79
2023/12/24 06:10:17;;;;;;;;;;;8.50;99.90;;;;;;5067394;28;19929;-79
2023/12/24 06:12:48;;;;;;;;;;;8.50;99.90;;;;;;5070932;28;19936;-80
2023/12/24 06:15:15;;;;;;;;;;;8.50;99.90;;;;;;5070019;28;19928;-77
2023/12/24 06:17:41;;;;;;;;;;;8.50;99.90;;;;;;5064660;28;19935;-81
2023/12/24 06:20:09;;;;;;;;;;;8.50;99.90;;;;;;5070852;28;20390;-80
2023/12/24 06:22:37;;;;;;;;;;;8.50;99.90;;;;;;5072187;28;20103;-80
2023/12/24 06:25:04;;;;;;;;;;;8.50;99.90;;;;;;5075028;28;19983;-81
2023/12/24 06:27:31;;;;;;;;;;;8.50;99.90;;;;;;5069905;28;19929;-77
2023/12/24 06:29:57;;;;;;;;;;;8.50;99.90;;;;;;5071373;28;19932;-80
2023/12/24 06:32:24;;;;;;;;;;;8.50;99.90;;;;;;5069696;28;19928;-81
2023/12/24 06:34:50;;;;;;;;;;;8.50;99.90;;;;;;5070247;28;19931;-79
2023/12/24 06:37:17;;;;;;;;;;;8.50;99.90;;;;;;5069703;28;19928;-79
2023/12/24 06:39:45;;;;;;;;;;;8.50;99.90;;;;;;5069984;28;19932;-80
2023/12/24 06:42:11;;;;;;;;;;;8.50;99.90;;;;;;5073096;28;19925;-79
2023/12/24 06:44:41;;;;;;;;;;;8.50;99.90;;;;;;5070585;28;20386;-80
2023/12/24 06:47:08;;;;;;;;;;;8.50;99.90;;;;;;5067343;28;20601;-78
2023/12/24 06:49:35;;;;;;;;;;;8.50;99.90;;;;;;5065609;28;20298;-80
2023/12/24 06:52:01;;;;;;;;;;;8.50;99.90;;;;;;5068181;28;19935;-80
2023/12/24 06:54:28;;;;;;;;;;;8.50;99.90;;;;;;5068735;28;19948;-80
2023/12/24 06:56:56;;;;;;;;;;;8.50;99.90;;;;;;5068367;28;19934;-79
2023/12/24 06:59:22;;;;;;;;;;;8.50;99.90;;;;;;5068233;28;19929;-79
2023/12/24 07:01:49;;;;;;;;;;;8.50;99.90;;;;;;5070990;28;19928;-82
2023/12/24 07:04:16;;;;;;;;;;;8.60;99.90;;;;;;5068094;28;20023;-77
2023/12/24 07:06:42;;;;;;;;;;;8.60;99.90;;;;;;5071455;28;19955;-77
2023/12/24 07:09:09;;;;;;;;;;;8.60;99.90;;;;;;5067710;28;19928;-78
2023/12/24 07:11:36;;;;;;;;;;;8.60;99.90;;;;;;5067499;28;19929;-82
2023/12/24 07:14:04;;;;;;;;;;;8.50;99.90;;;;;;5067382;28;20505;-80
2023/12/24 07:16:32;;;;;;;;;;;8.50;99.90;;;;;;5068412;28;21516;-76
2023/12/24 07:18:58;;;;;;;;;;;8.60;99.90;;;;;;5067406;28;20359;-80
2023/12/24 07:21:25;;;;;;;;;;;8.60;99.90;;;;;;5071035;28;19956;-78
2023/12/24 07:23:51;;;;;;;;;;;8.60;99.90;;;;;;5070562;28;19933;-80
2023/12/24 07:26:18;;;;;;;;;;;8.50;99.90;;;;;;5066984;28;19932;-77
2023/12/24 07:28:45;;;;;;;;;;;8.60;99.90;;;;;;5070368;28;19950;-79
2023/12/24 07:31:15;;;;;;;;;;;8.60;99.90;;;;;;5071080;28;20398;-80
2023/12/24 07:33:41;;;;;;;;;;;8.50;99.90;;;;;;5075001;28;19929;-79
2023/12/24 07:36:08;;;;;;;;;;;8.60;99.90;;;;;;5074131;28;20014;-80
2023/12/24 07:38:35;;;;;;;;;;;8.60;99.90;;;;;;5073774;28;20000;-79
2023/12/24 07:41:03;;;;;;;;;;;8.60;99.90;;;;;;5071093;28;19928;-77
2023/12/24 07:43:29;;;;;;;;;;;8.60;99.90;;;;;;5072843;28;20032;-80
2023/12/24 07:45:56;;;;;;;;;;;8.60;99.90;;;;;;5066634;28;19928;-78
2023/12/24 07:48:25;;;;;;;;;;;8.60;99.90;;;;;;5073176;28;19938;-80
2023/12/24 07:50:51;;;;;;;;;;;8.60;99.90;;;;;;5071561;28;19940;-83
2023/12/24 07:53:18;;;;;;;;;;;8.60;99.90;;;;;;5070937;28;19928;-80
2023/12/24 07:55:45;;;;;;;;;;;8.60;99.90;;;;;;5070927;28;19928;-77
2023/12/24 07:58:11;;;;;;;;;;;8.60;99.90;;;;;;5065780;28;19945;-82
2023/12/24 08:00:38;;;;;;;;;;;8.60;99.90;;;;;;5065767;28;20450;-81
2023/12/24 08:03:05;;;;;;;;;;;8.60;99.90;;;;;;5069298;28;20425;-78
2023/12/24 08:05:33;;;;;;;;;;;8.60;99.90;;;;;;5069370;28;19928;-81
2023/12/24 08:07:59;;;;;;;;;;;8.60;99.90;;;;;;5070068;28;20389;-82
2023/12/24 08:10:26;;;;;;;;;;;8.70;99.90;;;;;;5071643;28;19929;-82
2023/12/24 08:12:52;;;;;;;;;;;8.70;99.90;;;;;;5070692;28;19933;-82
2023/12/24 08:15:21;;;;;;;;;;;8.60;99.90;;;;;;5069124;28;19929;-82
2023/12/24 08:17:48;;;;;;;;;;;8.60;99.90;;;;;;5066240;28;19971;-80
2023/12/24 08:20:14;;;;;;;;;;;8.60;99.90;;;;;;5068599;28;19940;-82
2023/12/24 08:22:43;;;;;;;;;;;8.60;99.90;;;;;;5070068;28;19935;-78
2023/12/24 08:25:10;;;;;;;;;;;8.60;99.90;;;;;;5070990;28;20199;-82
2023/12/24 08:27:36;;;;;;;;;;;8.60;99.90;;;;;;5068178;28;20517;-83
2023/12/24 08:30:03;;;;;;;;;;;8.60;99.90;;;;;;5067029;28;19936;-79
2023/12/24 08:32:29;;;;;;;;;;;8.60;99.90;;;;;;5067479;28;20351;-78
2023/12/24 08:34:56;;;;;;;;;;;8.60;99.90;;;;;;5066083;28;20387;-83
2023/12/24 08:37:22;;;;;;;;;;;8.60;99.90;;;;;;5072922;28;19929;-80
2023/12/24 08:39:50;;;;;;;;;;;8.60;99.90;;;;;;5066622;28;20290;-81
2023/12/24 08:42:17;;;;;;;;;;;8.60;99.90;;;;;;5073064;28;20634;-80
2023/12/24 08:44:43;;;;;;;;;;;8.60;99.90;;;;;;5063677;28;19940;-83
2023/12/24 08:47:10;;;;;;;;;;;8.60;99.90;;;;;;5069008;28;19932;-82
2023/12/24 08:49:37;;;;;;;;;;;8.60;99.90;;;;;;5063668;28;19960;-82
2023/12/24 08:52:04;;;;;;;;;;;8.50;99.90;;;;;;5064081;28;19964;-81
2023/12/24 08:54:31;;;;;;;;;;;8.50;99.90;;;;;;5065540;28;19928;-81
2023/12/24 08:56:58;;;;;;;;;;;8.50;99.90;;;;;;5064590;28;19963;-80
2023/12/24 08:59:25;;;;;;;;;;;8.50;99.90;;;;;;5057782;28;20279;-81
2023/12/24 09:01:53;;;;;;;;;;;8.50;99.90;;;;;;5062641;28;19928;-81
2023/12/24 09:04:20;;;;;;;;;;;8.60;99.90;;;;;;5064430;28;19936;-77
2023/12/24 09:06:46;;;;;;;;;;;8.50;99.90;;;;;;5057684;28;20290;-77
2023/12/24 09:09:13;;;;;;;;;;;8.50;99.90;;;;;;5061201;28;19959;-80
2023/12/24 09:11:40;;;;;;;;;;;8.50;99.90;;;;;;5064022;28;20386;-78
2023/12/24 09:14:08;;;;;;;;;;;8.50;99.90;;;;;;5061867;28;19933;-82
2023/12/24 09:16:36;;;;;;;;;;;8.50;99.90;;;;;;5063713;28;20613;-80
2023/12/24 09:19:02;;;;;;;;;;;8.50;99.90;;;;;;5064838;28;19928;-81
2023/12/24 09:21:29;;;;;;;;;;;8.50;99.90;;;;;;5067280;28;19928;-81
2023/12/24 09:23:58;;;;;;;;;;;8.50;99.90;;;;;;5064542;28;19973;-79
2023/12/24 09:26:24;;;;;;;;;;;8.50;99.90;;;;;;5068220;28;19936;-78
2023/12/24 09:28:51;;;;;;;;;;;8.50;99.90;;;;;;5061945;28;19939;-80
2023/12/24 09:31:19;;;;;;;;;;;8.40;99.90;;;;;;5064635;28;19933;-80
2023/12/24 09:33:46;;;;;;;;;;;8.40;99.90;;;;;;5064527;28;19933;-82
2023/12/24 09:36:12;;;;;;;;;;;8.40;99.90;;;;;;5064087;28;20050;-80
2023/12/24 09:38:39;;;;;;;;;;;8.50;99.90;;;;;;5069399;28;19929;-81
2023/12/24 09:41:06;;;;;;;;;;;8.50;99.90;;;;;;5064199;28;19940;-81
2023/12/24 09:43:34;;;;;;;;;;;8.40;99.90;;;;;;5065471;28;19955;-79
2023/12/24 09:46:00;;;;;;;;;;;8.50;99.90;;;;;;5062874;28;20035;-81
2023/12/24 09:48:28;;;;;;;;;;;8.40;99.90;;;;;;5066174;28;19932;-81
2023/12/24 09:50:55;;;;;;;;;;;8.40;99.90;;;;;;5065903;28;20595;-77
2023/12/24 09:53:21;;;;;;;;;;;8.40;99.90;;;;;;5060360;28;20006;-79
2023/12/24 09:55:48;;;;;;;;;;;8.40;99.90;;;;;;5064813;28;19928;-80
2023/12/24 09:58:16;;;;;;;;;;;8.60;99.90;;;;;;5066187;28;20569;-81
2023/12/24 10:00:43;;;;;;;;;;;8.30;99.90;;;;;;5066149;28;19951;-82
2023/12/24 10:03:09;;;;;;;;;;;8.40;99.90;;;;;;5067516;28;19932;-82
2023/12/24 10:05:51;;;;;;;;;;;8.40;99.90;;;;;;5064619;28;19935;-83
2023/12/24 10:08:19;;;;;;;;;;;8.30;99.90;;;;;;5058643;28;19928;-83
2023/12/24 10:10:46;;;;;;;;;;;8.40;99.90;;;;;;5061591;28;19935;-82
2023/12/24 10:13:13;;;;;;;;;;;8.40;99.90;;;;;;5063464;28;19929;-82
2023/12/24 10:15:39;;;;;;;;;;;8.40;99.90;;;;;;5059179;28;19936;-79
2023/12/24 10:18:19;;;;;;;;;;;8.40;99.90;;;;;;5064853;28;19928;-79
2023/12/24 10:20:46;;;;;;;;;;;8.40;99.90;;;;;;5060757;28;20449;-78
2023/12/24 10:23:13;;;;;;;;;;;8.40;99.90;;;;;;5060150;28;20337;-79
2023/12/24 10:25:40;;;;;;;;;;;8.40;99.90;;;;;;5061492;28;20397;-78
2023/12/24 10:28:13;;;;;;;;;;;8.40;99.90;;;;;;5063203;28;20433;-78
2023/12/24 10:30:39;;;;;;;;;;;8.80;99.90;;;;;;5064804;28;19928;-79
2023/12/24 10:33:09;;;;;;;;;;;8.40;99.90;;;;;;5063170;28;19933;-79
2023/12/24 10:35:36;;;;;;;;;;;8.40;99.90;;;;;;5066600;28;19932;-78
2023/12/24 10:38:06;;;;;;;;;;;8.40;99.90;;;;;;5063996;28;20009;-79
2023/12/24 10:40:33;;;;;;;;;;;8.40;99.90;;;;;;5060799;28;20024;-78
2023/12/24 10:43:01;;;;;;;;;;;8.40;99.90;;;;;;5060532;28;19955;-78
2023/12/24 10:45:27;;;;;;;;;;;8.40;99.90;;;;;;5061641;28;19940;-80
2023/12/24 10:47:54;;;;;;;;;;;8.40;99.90;;;;;;5060347;28;19929;-77
2023/12/24 10:50:21;;;;;;;;;;;8.40;99.90;;;;;;5061178;28;19928;-79
2023/12/24 10:52:48;;;;;;;;;;;8.40;99.90;;;;;;5054577;28;19975;-78
2023/12/24 10:55:15;;;;;;;;;;;8.40;99.90;;;;;;5063900;28;20528;-78
2023/12/24 10:57:47;;;;;;;;;;;8.40;99.90;;;;;;5062833;28;20357;-78
2023/12/24 11:00:16;;;;;;;;;;;8.40;99.90;;;;;;5060966;28;20437;-78
2023/12/24 11:02:44;;;;;;;;;;;8.40;99.90;;;;;;5060618;28;19928;-78
2023/12/24 11:05:10;;;;;;;;;;;8.40;99.90;;;;;;5062944;28;19937;-78
2023/12/24 11:07:50;;;;;;;;;;;8.40;99.90;;;;;;5066642;28;19932;-79
2023/12/24 11:10:35;;;;;;;;;;;8.40;99.90;;;;;;5066325;28;19946;-78
2023/12/24 11:13:01;;;;;;;;;;;8.40;99.90;;;;;;5067954;28;20345;-79
2023/12/24 11:15:40;;;;;;;;;;;8.40;99.90;;;;;;5068425;28;20746;-76
2023/12/24 11:18:08;;;;;;;;;;;8.40;99.90;;;;;;5065458;28;20298;-76
2023/12/24 11:20:41;;;;;;;;;;;8.50;99.90;;;;;;5067192;28;19928;-76
2023/12/24 11:23:11;;;;;;;;;;;8.40;99.90;;;;;;5060491;28;19932;-77
2023/12/24 11:25:37;;;;;;;;;;;8.40;99.90;;;;;;5064435;28;19930;-78
2023/12/24 11:28:04;;;;;;;;;;;8.40;99.90;;;;;;5066332;28;19938;-77
2023/12/24 11:30:51;;;;;;;;;;;8.40;99.90;;;;;;5067026;28;19933;-78
2023/12/24 11:33:43;;;;;;;;;;;8.50;99.90;;;;;;5067978;28;20019;-79
2023/12/24 11:36:10;;;;;;;;;;;8.40;99.90;;;;;;5061953;28;19932;-80
2023/12/24 11:38:40;;;;;;;;;;;8.40;99.90;;;;;;5066414;28;20532;-79
2023/12/24 11:41:07;;;;;;;;;;;8.40;99.90;;;;;;5062948;28;19933;-79
2023/12/24 11:43:34;;;;;;;;;;;8.40;99.90;;;;;;5067159;28;20449;-79
2023/12/24 11:46:00;;;;;;;;;;;8.50;99.90;;;;;;5064983;28;19950;-78
2023/12/24 11:48:29;;;;;;;;;;;8.50;99.90;;;;;;5066808;28;19939;-79
2023/12/24 11:51:01;;;;;;;;;;;8.50;99.90;;;;;;5066149;28;19932;-79
2023/12/24 11:53:28;;;;;;;;;;;8.50;99.90;;;;;;5066913;28;20019;-77
2023/12/24 11:56:08;;;;;;;;;;;8.50;99.90;;;;;;5066263;28;20535;-78
2023/12/24 11:58:35;;;;;;;;;;;8.50;99.90;;;;;;5067516;28;20021;-78
2023/12/24 12:01:03;;;;;;;;;;;8.50;99.90;;;;;;5066603;28;19932;-79
2023/12/24 12:03:31;;;;;;;;;;;8.50;99.90;;;;;;5046243;28;19979;-77
2023/12/24 12:05:57;;;;;;;;;;;8.50;99.90;;;;;;5042556;28;20611;-77
2023/12/24 12:08:24;;;;;;;;;;;8.50;99.90;;;;;;5043915;28;19944;-78
2023/12/24 12:10:51;;;;;;;;;;;8.50;99.90;;;;;;5044697;28;19940;-78
2023/12/24 12:13:17;;;;;;;;;;;8.50;99.90;;;;;;5046093;28;20399;-77
2023/12/24 12:15:44;;;;;;;;;;;8.50;99.90;;;;;;5042351;28;19929;-79
2023/12/24 12:18:11;;;;;;;;;;;8.50;99.90;;;;;;5044228;28;19935;-80
2023/12/24 12:20:38;;;;;;;;;;;8.50;99.90;;;;;;5049097;28;19935;-79
2023/12/24 12:23:05;;;;;;;;;;;8.50;99.90;;;;;;5048096;28;19935;-78
2023/12/24 12:25:31;;;;;;;;;;;8.50;99.90;;;;;;5045759;28;19933;-77
2023/12/24 12:27:58;;;;;;;;;;;8.50;99.90;;;;;;5043328;28;19935;-77
2023/12/24 12:30:25;;;;;;;;;;;8.50;99.90;;;;;;5038233;28;19940;-78
2023/12/24 12:32:51;;;;;;;;;;;8.50;99.90;;;;;;5045228;28;19936;-76
2023/12/24 12:35:18;;;;;;;;;;;8.60;99.90;;;;;;5043113;28;19929;-78
2023/12/24 12:37:46;;;;;;;;;;;8.50;99.90;;;;;;5044629;28;20011;-77
2023/12/24 12:40:12;;;;;;;;;;;8.50;99.90;;;;;;5045136;28;19980;-78
2023/12/24 12:42:42;;;;;;;;;;;8.50;99.90;;;;;;5045273;28;19932;-79
2023/12/24 12:45:09;;;;;;;;;;;8.60;99.90;;;;;;5042471;28;20035;-77
2023/12/24 12:47:36;;;;;;;;;;;8.50;99.90;;;;;;5038805;28;19971;-76
2023/12/24 12:50:04;;;;;;;;;;;8.50;99.90;;;;;;5045583;28;19929;-77
2023/12/24 12:52:30;;;;;;;;;;;8.50;99.90;;;;;;5046982;28;20462;-78
2023/12/24 12:55:08;;;;;;;;;;;8.60;99.90;;;;;;5046710;28;19948;-78
2023/12/24 12:57:36;;;;;;;;;;;8.60;99.90;;;;;;5043305;28;19939;-79
2023/12/24 13:00:09;;;;;;;;;;;8.60;99.90;;;;;;5043369;28;19937;-77
2023/12/24 13:02:36;;;;;;;;;;;8.60;99.90;;;;;;5062148;28;19928;-78
2023/12/24 13:05:02;;;;;;;;;;;8.60;99.90;;;;;;5059850;28;20131;-78
2023/12/24 13:07:29;;;;;;;;;;;8.60;99.90;;;;;;5063532;28;19928;-78
2023/12/24 13:09:57;;;;;;;;;;;8.50;99.90;;;;;;5061545;28;19929;-79
2023/12/24 13:12:25;;;;;;;;;;;8.50;99.90;;;;;;5064361;28;19999;-75
2023/12/24 13:14:52;;;;;;;;;;;8.50;99.90;;;;;;5063132;28;19936;-78
2023/12/24 13:17:22;;;;;;;;;;;8.50;99.90;;;;;;5064671;28;19932;-78
2023/12/24 13:19:49;;;;;;;;;;;8.60;99.90;;;;;;5069485;28;19931;-78
2023/12/24 13:22:15;;;;;;;;;;;8.50;99.90;;;;;;5063444;28;19932;-78
2023/12/24 13:24:42;;;;;;;;;;;8.60;99.90;;;;;;5061147;28;19944;-78
2023/12/24 13:27:09;;;;;;;;;;;8.60;99.90;;;;;;5062000;28;19934;-77
2023/12/24 13:29:37;;;;;;;;;;;8.60;99.90;;;;;;5061648;28;20394;-79
2023/12/24 13:32:04;;;;;;;;;;;8.60;99.90;;;;;;5065988;28;19932;-80
2023/12/24 13:34:30;;;;;;;;;;;8.60;99.90;;;;;;5064635;28;20448;-78
2023/12/24 13:36:57;;;;;;;;;;;8.60;99.90;;;;;;5065189;28;20302;-78
2023/12/24 13:39:33;;;;;;;;;;;8.60;99.90;;;;;;5065516;28;20400;-78
2023/12/24 13:42:00;;;;;;;;;;;8.60;99.90;;;;;;5062873;28;19929;-78
2023/12/24 13:44:26;;;;;;;;;;;8.60;99.90;;;;;;5068282;28;20354;-78
2023/12/24 13:46:54;;;;;;;;;;;8.60;99.90;;;;;;5063457;28;19940;-78
2023/12/24 13:49:21;;;;;;;;;;;8.60;99.90;;;;;;5063561;28;19936;-78
2023/12/24 13:51:47;;;;;;;;;;;8.50;99.90;;;;;;5066390;28;19932;-77
2023/12/24 13:54:14;;;;;;;;;;;8.60;99.90;;;;;;5063756;28;19933;-77
2023/12/24 13:56:41;;;;;;;;;;;8.60;99.90;;;;;;5058821;28;19936;-81
2023/12/24 13:59:08;;;;;;;;;;;8.60;99.90;;;;;;5063435;28;19986;-78
2023/12/24 14:01:37;;;;;;;;;;;8.60;99.90;;;;;;5060610;28;19928;-77
2023/12/24 14:04:06;;;;;;;;;;;8.60;99.90;;;;;;5063566;28;19939;-78
2023/12/24 14:06:32;;;;;;;;;;;8.60;99.90;;;;;;5058576;28;19974;-78
2023/12/24 14:08:59;;;;;;;;;;;8.60;99.90;;;;;;5059468;28;19929;-80
2023/12/24 14:11:25;;;;;;;;;;;8.60;99.90;;;;;;5064130;28;19929;-78
2023/12/24 14:13:52;;;;;;;;;;;8.60;99.90;;;;;;5061486;28;21226;-78
2023/12/24 14:16:19;;;;;;;;;;;8.60;99.90;;;;;;5062372;28;19976;-77
2023/12/24 14:18:46;;;;;;;;;;;8.60;99.90;;;;;;5061883;28;19929;-77
2023/12/24 14:21:13;;;;;;;;;;;8.60;99.90;;;;;;5063178;28;19962;-78
2023/12/24 14:23:40;;;;;;;;;;;8.60;99.90;;;;;;5063609;28;19951;-79
2023/12/24 14:26:08;;;;;;;;;;;8.60;99.90;;;;;;5060879;28;19940;-78
2023/12/24 14:28:34;;;;;;;;;;;8.60;99.90;;;;;;5060541;28;20310;-80
2023/12/24 14:31:01;;;;;;;;;;;8.60;99.90;;;;;;5054211;28;19928;-77